Sayner, WI (54560)

4:02 AM CST on December 08, 2016 (GMT -0600)
Plum Lake - Pinney Woods | | Change Station
Active Advisory: Winter Storm Warning

Elev 1726 ft 46.01 °N, 89.53 °W | Updated 24 seconds ago

Snow
Snow
16.3 °F
Feels Like 16 °F
N
0.0
Wind Variable Wind from SW
Gusts 0.0 mph

Today
High -- | Low -- °F
--% Chance of Precip.
Yesterday
High -- | Low -- °F
Precip. -- in
Pressure 29.91 in
Visibility 10.0 miles
Clouds Overcast 1200 ft
Windchill 16 °F
Dew Point 10 °F
Humidity 75%
Rainfall 0.00 in
Snow Depth Not available.
7:27 AM 4:12 PM
First Quarter, 62% visible
METAR KARV 080955Z AUTO 27007KT 10SM OVC012 M08/M10 A2991 RMK AO2 T10781100
Pressure 29.91 in
Visibility 10.0 miles
Clouds Overcast 1200 ft
Windchill 16 °F
Dew Point 10 °F
Humidity 75%
Rainfall 0.00 in
Snow Depth Not available.
7:27 AM 4:12 PM
First Quarter, 62% visible
METAR KARV 080955Z AUTO 27007KT 10SM OVC012 M08/M10 A2991 RMK AO2 T10781100

10-Day Weather Forecast

Almanac

Astronomy

Dec. 08, 2016 Rise Set
Actual Time
Civil Twilight
Nautical Twilight
Astronomical Twilight
Moon
Length of Visible Light
Length of Day
Tomorrow will be .
, % of the Moon is Illuminated

Today's Extremes

State Highs State Lows

Community

WunderPhotos

Upload Photos

1,956,261 photos uploaded!

WunderBlog® & News

Nearby

Air Quality

  Air Quality AQ Index Pollutant
Not available.

Snow Depth

Station Depth Elevation

Earthquake Activity

City Distance Mag. Time & Date
Minimum magnitude displayed is 2.5.

Coastal Water Temperatures

Place Temperature

Stations

Nearby Weather Stations

Station Location Temp. Windchill Dew Point Humidity Wind Precip. Elev Updated Type
                   

Watches & Warnings

Winter Storm Warning
Issued: 3:43 AM CST Dec. 8, 2016 – National Weather Service

... Winter Storm Warning remains in effect until noon CST Friday...

* snow showers will increase this morning. Periods of snow
showers... heavy at times... will continue into Friday morning.

* The heaviest snowfall is expected to occur today and this
evening.

* Total snow accumulation will range from 8 to 12 inches in the
snowbelt of northwest Vilas County... to 2 to 4 inches in The
Eagle river area.

* Blustery northwest winds will produce some blowing and drifting
of the snow.

* The snow and blowing and drifting snow will lead to difficult
travel conditions.

Precautionary/preparedness actions...

A Winter Storm Warning for heavy lake-effect snow means severe
winter weather conditions are expected. If you travel... be sure
to have a working flashlight... food... and water in your vehicle
in case of an emergency. The latest Wisconsin Road conditions can
be obtained by calling 511.